sensor_id;sensor_type;location;lat;lon;timestamp;temperature;humidity
22071;DHT22;11200;51.488;6.668;2023-09-07T00:00:15;20.00;99.90
22071;DHT22;11200;51.488;6.668;2023-09-07T00:02:40;20.00;99.90
22071;DHT22;11200;51.488;6.668;2023-09-07T00:05:07;20.00;99.90
22071;DHT22;11200;51.488;6.668;2023-09-07T00:07:33;19.90;99.90
22071;DHT22;11200;51.488;6.668;2023-09-07T00:09:59;19.90;99.90
22071;DHT22;11200;51.488;6.668;2023-09-07T00:12:25;19.90;99.90
22071;DHT22;11200;51.488;6.668;2023-09-07T00:14:51;19.90;99.90
22071;DHT22;11200;51.488;6.668;2023-09-07T00:17:17;19.90;99.90
22071;DHT22;11200;51.488;6.668;2023-09-07T00:19:42;19.80;99.90
22071;DHT22;11200;51.488;6.668;2023-09-07T00:22:08;19.80;99.90
22071;DHT22;11200;51.488;6.668;2023-09-07T00:24:35;19.80;99.90
22071;DHT22;11200;51.488;6.668;2023-09-07T00:27:00;19.70;99.90
22071;DHT22;11200;51.488;6.668;2023-09-07T00:29:26;19.70;99.90
22071;DHT22;11200;51.488;6.668;2023-09-07T00:31:51;19.70;99.90
22071;DHT22;11200;51.488;6.668;2023-09-07T00:34:17;19.60;99.90
22071;DHT22;11200;51.488;6.668;2023-09-07T00:36:42;19.60;99.90
22071;DHT22;11200;51.488;6.668;2023-09-07T00:39:08;19.60;99.90
22071;DHT22;11200;51.488;6.668;2023-09-07T00:41:34;19.50;99.90
22071;DHT22;11200;51.488;6.668;2023-09-07T00:43:59;19.60;99.90
22071;DHT22;11200;51.488;6.668;2023-09-07T00:46:25;19.50;99.90
22071;DHT22;11200;51.488;6.668;2023-09-07T00:48:51;19.50;99.90
22071;DHT22;11200;51.488;6.668;2023-09-07T00:51:17;19.20;99.90
22071;DHT22;11200;51.488;6.668;2023-09-07T00:53:42;19.40;99.90
22071;DHT22;11200;51.488;6.668;2023-09-07T00:56:08;19.40;99.90
22071;DHT22;11200;51.488;6.668;2023-09-07T00:58:34;19.40;99.90
22071;DHT22;11200;51.488;6.668;2023-09-07T01:01:00;19.30;99.90
22071;DHT22;11200;51.488;6.668;2023-09-07T01:03:26;19.40;99.90
22071;DHT22;11200;51.488;6.668;2023-09-07T01:05:56;19.30;99.90
22071;DHT22;11200;51.488;6.668;2023-09-07T01:08:25;19.30;99.90
22071;DHT22;11200;51.488;6.668;2023-09-07T01:10:52;19.20;99.90
22071;DHT22;11200;51.488;6.668;2023-09-07T01:13:19;19.20;99.90
22071;DHT22;11200;51.488;6.668;2023-09-07T01:15:46;19.20;99.90
22071;DHT22;11200;51.488;6.668;2023-09-07T01:18:12;19.20;99.90
22071;DHT22;11200;51.488;6.668;2023-09-07T01:20:40;19.10;99.90
22071;DHT22;11200;51.488;6.668;2023-09-07T01:23:07;19.20;99.90
22071;DHT22;11200;51.488;6.668;2023-09-07T01:25:34;19.10;99.90
22071;DHT22;11200;51.488;6.668;2023-09-07T01:27:59;19.10;99.90
22071;DHT22;11200;51.488;6.668;2023-09-07T01:30:27;19.10;99.90
22071;DHT22;11200;51.488;6.668;2023-09-07T01:32:53;19.00;99.90
22071;DHT22;11200;51.488;6.668;2023-09-07T01:35:19;19.00;99.90
22071;DHT22;11200;51.488;6.668;2023-09-07T01:37:47;19.00;99.90
22071;DHT22;11200;51.488;6.668;2023-09-07T01:40:13;19.00;99.90
22071;DHT22;11200;51.488;6.668;2023-09-07T01:42:39;19.00;99.90
22071;DHT22;11200;51.488;6.668;2023-09-07T01:45:05;18.90;99.90
22071;DHT22;11200;51.488;6.668;2023-09-07T01:47:31;18.90;99.90
22071;DHT22;11200;51.488;6.668;2023-09-07T01:49:57;18.90;99.90
22071;DHT22;11200;51.488;6.668;2023-09-07T01:52:22;18.90;99.90
22071;DHT22;11200;51.488;6.668;2023-09-07T01:54:48;18.80;99.90
22071;DHT22;11200;51.488;6.668;2023-09-07T01:57:13;18.80;99.90
22071;DHT22;11200;51.488;6.668;2023-09-07T01:59:39;18.80;99.90
22071;DHT22;11200;51.488;6.668;2023-09-07T02:02:05;18.80;99.90
22071;DHT22;11200;51.488;6.668;2023-09-07T02:04:30;18.60;99.90
22071;DHT22;11200;51.488;6.668;2023-09-07T02:06:56;18.70;99.90
22071;DHT22;11200;51.488;6.668;2023-09-07T02:09:21;18.70;99.90
22071;DHT22;11200;51.488;6.668;2023-09-07T02:11:47;18.70;99.90
22071;DHT22;11200;51.488;6.668;2023-09-07T02:14:13;18.70;99.90
22071;DHT22;11200;51.488;6.668;2023-09-07T02:16:38;18.60;99.90
22071;DHT22;11200;51.488;6.668;2023-09-07T02:19:05;18.60;99.90
22071;DHT22;11200;51.488;6.668;2023-09-07T02:21:32;18.60;99.90
22071;DHT22;11200;51.488;6.668;2023-09-07T02:23:58;18.60;99.90
22071;DHT22;11200;51.488;6.668;2023-09-07T02:26:23;18.60;99.90
22071;DHT22;11200;51.488;6.668;2023-09-07T02:28:49;18.50;99.90
22071;DHT22;11200;51.488;6.668;2023-09-07T02:31:15;18.50;99.90
22071;DHT22;11200;51.488;6.668;2023-09-07T02:33:40;18.50;99.90
22071;DHT22;11200;51.488;6.668;2023-09-07T02:36:06;18.40;99.90
22071;DHT22;11200;51.488;6.668;2023-09-07T02:38:31;18.40;99.90
22071;DHT22;11200;51.488;6.668;2023-09-07T02:40:57;18.40;99.90
22071;DHT22;11200;51.488;6.668;2023-09-07T02:43:23;18.40;99.90
22071;DHT22;11200;51.488;6.668;2023-09-07T02:45:49;18.40;99.90
22071;DHT22;11200;51.488;6.668;2023-09-07T02:48:15;18.30;99.90
22071;DHT22;11200;51.488;6.668;2023-09-07T02:50:41;18.30;99.90
22071;DHT22;11200;51.488;6.668;2023-09-07T02:53:08;18.30;99.90
22071;DHT22;11200;51.488;6.668;2023-09-07T02:55:34;18.30;99.90
22071;DHT22;11200;51.488;6.668;2023-09-07T02:58:02;18.20;99.90
22071;DHT22;11200;51.488;6.668;2023-09-07T03:00:28;18.20;99.90
22071;DHT22;11200;51.488;6.668;2023-09-07T03:02:53;18.20;99.90
22071;DHT22;11200;51.488;6.668;2023-09-07T03:05:19;18.20;99.90
22071;DHT22;11200;51.488;6.668;2023-09-07T03:07:46;18.20;99.90
22071;DHT22;11200;51.488;6.668;2023-09-07T03:10:12;18.20;99.90
22071;DHT22;11200;51.488;6.668;2023-09-07T03:12:38;18.10;99.90
22071;DHT22;11200;51.488;6.668;2023-09-07T03:15:04;18.10;99.90
22071;DHT22;11200;51.488;6.668;2023-09-07T03:17:30;18.00;99.90
22071;DHT22;11200;51.488;6.668;2023-09-07T03:19:56;18.00;99.90
22071;DHT22;11200;51.488;6.668;2023-09-07T03:22:25;18.00;99.90
22071;DHT22;11200;51.488;6.668;2023-09-07T03:24:51;18.00;99.90
22071;DHT22;11200;51.488;6.668;2023-09-07T03:27:17;18.00;99.90
22071;DHT22;11200;51.488;6.668;2023-09-07T03:29:44;18.00;99.90
22071;DHT22;11200;51.488;6.668;2023-09-07T03:32:10;17.90;99.90
22071;DHT22;11200;51.488;6.668;2023-09-07T03:34:36;17.90;99.90
22071;DHT22;11200;51.488;6.668;2023-09-07T03:37:01;17.90;99.90
22071;DHT22;11200;51.488;6.668;2023-09-07T03:39:27;17.90;99.90
22071;DHT22;11200;51.488;6.668;2023-09-07T03:41:53;17.80;99.90
22071;DHT22;11200;51.488;6.668;2023-09-07T03:44:19;17.80;99.90
22071;DHT22;11200;51.488;6.668;2023-09-07T03:46:45;17.80;99.90
22071;DHT22;11200;51.488;6.668;2023-09-07T03:49:10;17.80;99.90
22071;DHT22;11200;51.488;6.668;2023-09-07T03:51:36;17.80;99.90
22071;DHT22;11200;51.488;6.668;2023-09-07T03:54:01;17.70;99.90
22071;DHT22;11200;51.488;6.668;2023-09-07T03:56:27;17.70;99.90
22071;DHT22;11200;51.488;6.668;2023-09-07T03:58:53;17.70;99.90
22071;DHT22;11200;51.488;6.668;2023-09-07T04:01:18;17.70;99.90
22071;DHT22;11200;51.488;6.668;2023-09-07T04:03:47;17.70;99.90
22071;DHT22;11200;51.488;6.668;2023-09-07T04:06:13;17.40;99.90
22071;DHT22;11200;51.488;6.668;2023-09-07T04:08:39;17.60;99.90
22071;DHT22;11200;51.488;6.668;2023-09-07T04:11:05;17.60;99.90
22071;DHT22;11200;51.488;6.668;2023-09-07T04:13:32;17.60;99.90
22071;DHT22;11200;51.488;6.668;2023-09-07T04:15:57;17.60;99.90
22071;DHT22;11200;51.488;6.668;2023-09-07T04:18:23;17.50;99.90
22071;DHT22;11200;51.488;6.668;2023-09-07T04:20:49;17.50;99.90
22071;DHT22;11200;51.488;6.668;2023-09-07T04:23:15;17.50;99.90
22071;DHT22;11200;51.488;6.668;2023-09-07T04:25:40;17.40;99.90
22071;DHT22;11200;51.488;6.668;2023-09-07T04:28:07;17.40;99.90
22071;DHT22;11200;51.488;6.668;2023-09-07T04:30:37;17.40;99.90
22071;DHT22;11200;51.488;6.668;2023-09-07T04:33:02;17.40;99.90
22071;DHT22;11200;51.488;6.668;2023-09-07T04:35:29;17.30;99.90
22071;DHT22;11200;51.488;6.668;2023-09-07T04:37:56;17.30;99.90
22071;DHT22;11200;51.488;6.668;2023-09-07T04:40:23;17.30;99.90
22071;DHT22;11200;51.488;6.668;2023-09-07T04:42:49;17.30;99.90
22071;DHT22;11200;51.488;6.668;2023-09-07T04:45:15;17.30;99.90
22071;DHT22;11200;51.488;6.668;2023-09-07T04:47:41;17.20;99.90
22071;DHT22;11200;51.488;6.668;2023-09-07T04:50:06;17.20;99.90
22071;DHT22;11200;51.488;6.668;2023-09-07T04:52:32;17.20;99.90
22071;DHT22;11200;51.488;6.668;2023-09-07T04:55:00;17.20;99.90
22071;DHT22;11200;51.488;6.668;2023-09-07T04:57:25;17.20;99.90
22071;DHT22;11200;51.488;6.668;2023-09-07T04:59:51;17.10;99.90
22071;DHT22;11200;51.488;6.668;2023-09-07T05:02:16;17.10;99.90
22071;DHT22;11200;51.488;6.668;2023-09-07T05:04:42;17.00;99.90
22071;DHT22;11200;51.488;6.668;2023-09-07T05:07:08;17.10;99.90
22071;DHT22;11200;51.488;6.668;2023-09-07T05:09:33;17.10;99.90
22071;DHT22;11200;51.488;6.668;2023-09-07T05:11:59;17.00;99.90
22071;DHT22;11200;51.488;6.668;2023-09-07T05:14:25;17.00;99.90
22071;DHT22;11200;51.488;6.668;2023-09-07T05:16:54;17.00;99.90
22071;DHT22;11200;51.488;6.668;2023-09-07T05:19:22;16.90;99.90
22071;DHT22;11200;51.488;6.668;2023-09-07T05:21:47;16.90;99.90
22071;DHT22;11200;51.488;6.668;2023-09-07T05:24:14;16.90;99.90
22071;DHT22;11200;51.488;6.668;2023-09-07T05:26:41;16.90;99.90
22071;DHT22;11200;51.488;6.668;2023-09-07T05:29:07;16.90;99.90
22071;DHT22;11200;51.488;6.668;2023-09-07T05:31:33;16.90;99.90
22071;DHT22;11200;51.488;6.668;2023-09-07T05:33:58;16.90;99.90
22071;DHT22;11200;51.488;6.668;2023-09-07T05:36:24;16.90;99.90
22071;DHT22;11200;51.488;6.668;2023-09-07T05:38:49;16.80;99.90
22071;DHT22;11200;51.488;6.668;2023-09-07T05:41:15;16.80;99.90
22071;DHT22;11200;51.488;6.668;2023-09-07T05:43:40;16.80;99.90
22071;DHT22;11200;51.488;6.668;2023-09-07T05:46:06;16.80;99.90
22071;DHT22;11200;51.488;6.668;2023-09-07T05:48:32;16.80;99.90
22071;DHT22;11200;51.488;6.668;2023-09-07T05:50:57;16.80;99.90
22071;DHT22;11200;51.488;6.668;2023-09-07T05:53:23;16.80;99.90
22071;DHT22;11200;51.488;6.668;2023-09-07T05:55:50;16.70;99.90
22071;DHT22;11200;51.488;6.668;2023-09-07T05:58:15;16.80;99.90
22071;DHT22;11200;51.488;6.668;2023-09-07T06:00:41;16.80;99.90
22071;DHT22;11200;51.488;6.668;2023-09-07T06:03:07;16.70;99.90
22071;DHT22;11200;51.488;6.668;2023-09-07T06:05:34;16.80;99.90
22071;DHT22;11200;51.488;6.668;2023-09-07T06:08:01;16.80;99.90
22071;DHT22;11200;51.488;6.668;2023-09-07T06:10:28;16.80;99.90
22071;DHT22;11200;51.488;6.668;2023-09-07T06:12:54;16.80;99.90
22071;DHT22;11200;51.488;6.668;2023-09-07T06:15:20;16.80;99.90
22071;DHT22;11200;51.488;6.668;2023-09-07T06:17:46;16.80;99.90
22071;DHT22;11200;51.488;6.668;2023-09-07T06:20:11;16.80;99.90
22071;DHT22;11200;51.488;6.668;2023-09-07T06:22:37;16.70;99.90
22071;DHT22;11200;51.488;6.668;2023-09-07T06:25:03;16.70;99.90
22071;DHT22;11200;51.488;6.668;2023-09-07T06:27:28;16.70;99.90
22071;DHT22;11200;51.488;6.668;2023-09-07T06:29:54;16.80;99.90
22071;DHT22;11200;51.488;6.668;2023-09-07T06:32:20;16.70;99.90
22071;DHT22;11200;51.488;6.668;2023-09-07T06:34:45;16.70;99.90
22071;DHT22;11200;51.488;6.668;2023-09-07T06:37:11;16.80;99.90
22071;DHT22;11200;51.488;6.668;2023-09-07T06:39:37;16.80;99.90
22071;DHT22;11200;51.488;6.668;2023-09-07T06:42:03;16.80;99.90
22071;DHT22;11200;51.488;6.668;2023-09-07T06:44:29;16.80;99.90
22071;DHT22;11200;51.488;6.668;2023-09-07T06:46:55;16.90;99.90
22071;DHT22;11200;51.488;6.668;2023-09-07T06:49:21;16.90;99.90
22071;DHT22;11200;51.488;6.668;2023-09-07T06:51:47;16.90;99.90
22071;DHT22;11200;51.488;6.668;2023-09-07T06:54:12;16.90;99.90
22071;DHT22;11200;51.488;6.668;2023-09-07T06:56:38;17.00;99.90
22071;DHT22;11200;51.488;6.668;2023-09-07T06:59:04;17.00;99.90
22071;DHT22;11200;51.488;6.668;2023-09-07T07:01:29;17.10;99.90
22071;DHT22;11200;51.488;6.668;2023-09-07T07:03:55;17.10;99.90
22071;DHT22;11200;51.488;6.668;2023-09-07T07:06:22;17.20;99.90
22071;DHT22;11200;51.488;6.668;2023-09-07T07:08:48;17.30;99.90
22071;DHT22;11200;51.488;6.668;2023-09-07T07:11:14;17.30;99.90
22071;DHT22;11200;51.488;6.668;2023-09-07T07:13:39;17.40;99.90
22071;DHT22;11200;51.488;6.668;2023-09-07T07:16:05;17.50;99.90
22071;DHT22;11200;51.488;6.668;2023-09-07T07:18:30;17.50;99.90
22071;DHT22;11200;51.488;6.668;2023-09-07T07:20:56;17.60;99.90
22071;DHT22;11200;51.488;6.668;2023-09-07T07:23:22;17.60;99.90
22071;DHT22;11200;51.488;6.668;2023-09-07T07:25:48;17.70;99.90
22071;DHT22;11200;51.488;6.668;2023-09-07T07:28:14;17.80;99.90
22071;DHT22;11200;51.488;6.668;2023-09-07T07:30:40;17.80;99.90
22071;DHT22;11200;51.488;6.668;2023-09-07T07:33:06;17.90;99.90
22071;DHT22;11200;51.488;6.668;2023-09-07T07:35:33;17.90;99.90
22071;DHT22;11200;51.488;6.668;2023-09-07T07:38:00;18.00;99.90
22071;DHT22;11200;51.488;6.668;2023-09-07T07:40:26;18.10;99.90
22071;DHT22;11200;51.488;6.668;2023-09-07T07:42:53;18.10;99.90
22071;DHT22;11200;51.488;6.668;2023-09-07T07:45:18;18.10;99.90
22071;DHT22;11200;51.488;6.668;2023-09-07T07:47:54;18.20;99.90
22071;DHT22;11200;51.488;6.668;2023-09-07T07:50:20;18.30;99.90
22071;DHT22;11200;51.488;6.668;2023-09-07T07:52:46;18.30;99.90
22071;DHT22;11200;51.488;6.668;2023-09-07T07:55:12;18.40;99.90
22071;DHT22;11200;51.488;6.668;2023-09-07T07:57:38;18.40;99.90
22071;DHT22;11200;51.488;6.668;2023-09-07T08:00:04;18.50;99.90
22071;DHT22;11200;51.488;6.668;2023-09-07T08:02:31;18.60;99.90
22071;DHT22;11200;51.488;6.668;2023-09-07T08:04:57;18.60;99.90
22071;DHT22;11200;51.488;6.668;2023-09-07T08:07:24;18.70;99.90
22071;DHT22;11200;51.488;6.668;2023-09-07T08:09:50;18.80;99.90
22071;DHT22;11200;51.488;6.668;2023-09-07T08:12:16;18.90;99.90
22071;DHT22;11200;51.488;6.668;2023-09-07T08:14:42;19.00;99.90
22071;DHT22;11200;51.488;6.668;2023-09-07T08:17:08;19.20;99.90
22071;DHT22;11200;51.488;6.668;2023-09-07T08:19:34;19.30;99.90
22071;DHT22;11200;51.488;6.668;2023-09-07T08:21:59;19.50;99.90
22071;DHT22;11200;51.488;6.668;2023-09-07T08:24:29;19.70;99.90
22071;DHT22;11200;51.488;6.668;2023-09-07T08:26:54;20.00;99.90
22071;DHT22;11200;51.488;6.668;2023-09-07T08:29:23;20.20;99.90
22071;DHT22;11200;51.488;6.668;2023-09-07T08:31:54;20.40;99.90
22071;DHT22;11200;51.488;6.668;2023-09-07T08:34:20;20.70;99.90
22071;DHT22;11200;51.488;6.668;2023-09-07T08:36:47;20.90;99.90
22071;DHT22;11200;51.488;6.668;2023-09-07T08:39:16;21.20;99.90
22071;DHT22;11200;51.488;6.668;2023-09-07T08:41:42;21.50;99.90
22071;DHT22;11200;51.488;6.668;2023-09-07T08:44:15;21.80;99.90
22071;DHT22;11200;51.488;6.668;2023-09-07T08:46:42;22.00;99.90
22071;DHT22;11200;51.488;6.668;2023-09-07T08:49:08;22.30;99.90
22071;DHT22;11200;51.488;6.668;2023-09-07T08:51:34;22.50;99.90
22071;DHT22;11200;51.488;6.668;2023-09-07T08:54:03;22.80;99.90
22071;DHT22;11200;51.488;6.668;2023-09-07T08:56:29;23.00;99.90
22071;DHT22;11200;51.488;6.668;2023-09-07T08:58:54;23.30;99.90
22071;DHT22;11200;51.488;6.668;2023-09-07T09:01:20;23.50;99.90
22071;DHT22;11200;51.488;6.668;2023-09-07T09:03:49;23.80;99.90
22071;DHT22;11200;51.488;6.668;2023-09-07T09:06:20;24.00;99.90
22071;DHT22;11200;51.488;6.668;2023-09-07T09:08:49;24.20;99.90
22071;DHT22;11200;51.488;6.668;2023-09-07T09:11:15;24.40;99.90
22071;DHT22;11200;51.488;6.668;2023-09-07T09:13:41;24.60;99.90
22071;DHT22;11200;51.488;6.668;2023-09-07T09:16:07;24.90;99.90
22071;DHT22;11200;51.488;6.668;2023-09-07T09:18:33;25.10;99.90
22071;DHT22;11200;51.488;6.668;2023-09-07T09:20:59;25.30;99.90
22071;DHT22;11200;51.488;6.668;2023-09-07T09:23:33;25.50;99.90
22071;DHT22;11200;51.488;6.668;2023-09-07T09:26:00;25.70;99.90
22071;DHT22;11200;51.488;6.668;2023-09-07T09:28:26;25.90;99.90
22071;DHT22;11200;51.488;6.668;2023-09-07T09:30:53;26.10;99.90
22071;DHT22;11200;51.488;6.668;2023-09-07T09:33:22;26.20;99.90
22071;DHT22;11200;51.488;6.668;2023-09-07T09:35:48;26.40;99.90
22071;DHT22;11200;51.488;6.668;2023-09-07T09:38:14;26.50;99.90
22071;DHT22;11200;51.488;6.668;2023-09-07T09:40:40;26.70;99.90
22071;DHT22;11200;51.488;6.668;2023-09-07T09:43:06;26.80;99.90
22071;DHT22;11200;51.488;6.668;2023-09-07T09:45:32;26.90;99.90
22071;DHT22;11200;51.488;6.668;2023-09-07T09:47:58;27.10;99.90
22071;DHT22;11200;51.488;6.668;2023-09-07T09:50:27;27.20;99.90
22071;DHT22;11200;51.488;6.668;2023-09-07T09:52:53;27.30;99.90
22071;DHT22;11200;51.488;6.668;2023-09-07T09:55:19;27.50;99.90
22071;DHT22;11200;51.488;6.668;2023-09-07T09:57:45;27.60;99.90
22071;DHT22;11200;51.488;6.668;2023-09-07T10:00:11;27.70;99.90
22071;DHT22;11200;51.488;6.668;2023-09-07T10:06:10;28.10;99.90
22071;DHT22;11200;51.488;6.668;2023-09-07T10:08:35;28.30;99.90
22071;DHT22;11200;51.488;6.668;2023-09-07T10:11:08;28.40;99.90
22071;DHT22;11200;51.488;6.668;2023-09-07T10:13:37;28.50;99.90
22071;DHT22;11200;51.488;6.668;2023-09-07T10:16:04;28.60;99.90
22071;DHT22;11200;51.488;6.668;2023-09-07T10:18:39;28.70;99.90
22071;DHT22;11200;51.488;6.668;2023-09-07T10:21:05;28.80;99.90
22071;DHT22;11200;51.488;6.668;2023-09-07T10:23:41;28.90;99.90
22071;DHT22;11200;51.488;6.668;2023-09-07T10:26:17;29.10;99.90
22071;DHT22;11200;51.488;6.668;2023-09-07T10:28:44;29.20;99.90
22071;DHT22;11200;51.488;6.668;2023-09-07T10:31:18;29.30;99.90
22071;DHT22;11200;51.488;6.668;2023-09-07T10:33:45;29.40;99.90
22071;DHT22;11200;51.488;6.668;2023-09-07T10:36:27;29.50;99.90
22071;DHT22;11200;51.488;6.668;2023-09-07T10:38:55;29.70;99.90
22071;DHT22;11200;51.488;6.668;2023-09-07T10:41:22;29.70;99.90
22071;DHT22;11200;51.488;6.668;2023-09-07T10:43:49;29.80;99.90
22071;DHT22;11200;51.488;6.668;2023-09-07T10:46:18;29.80;99.90
22071;DHT22;11200;51.488;6.668;2023-09-07T10:48:45;29.90;99.90
22071;DHT22;11200;51.488;6.668;2023-09-07T10:51:10;30.10;99.90
22071;DHT22;11200;51.488;6.668;2023-09-07T10:53:36;30.20;99.90
22071;DHT22;11200;51.488;6.668;2023-09-07T10:56:05;30.30;99.90
22071;DHT22;11200;51.488;6.668;2023-09-07T10:58:32;30.40;99.90
22071;DHT22;11200;51.488;6.668;2023-09-07T11:00:58;30.50;99.90
22071;DHT22;11200;51.488;6.668;2023-09-07T11:03:25;30.60;99.90
22071;DHT22;11200;51.488;6.668;2023-09-07T11:05:54;30.70;99.90
22071;DHT22;11200;51.488;6.668;2023-09-07T11:08:22;30.80;99.90
22071;DHT22;11200;51.488;6.668;2023-09-07T11:10:50;30.90;99.90
22071;DHT22;11200;51.488;6.668;2023-09-07T11:13:15;31.00;99.90
22071;DHT22;11200;51.488;6.668;2023-09-07T11:15:42;31.10;99.90
22071;DHT22;11200;51.488;6.668;2023-09-07T11:18:08;31.10;99.90
22071;DHT22;11200;51.488;6.668;2023-09-07T11:20:36;31.20;99.90
22071;DHT22;11200;51.488;6.668;2023-09-07T11:23:02;31.30;99.90
22071;DHT22;11200;51.488;6.668;2023-09-07T11:25:36;31.40;99.90
22071;DHT22;11200;51.488;6.668;2023-09-07T11:28:06;31.40;99.90
22071;DHT22;11200;51.488;6.668;2023-09-07T11:30:33;31.50;99.90
22071;DHT22;11200;51.488;6.668;2023-09-07T11:33:06;31.50;99.90
22071;DHT22;11200;51.488;6.668;2023-09-07T11:35:35;31.60;99.90
22071;DHT22;11200;51.488;6.668;2023-09-07T11:38:02;31.70;99.90
22071;DHT22;11200;51.488;6.668;2023-09-07T11:40:29;31.80;99.90
22071;DHT22;11200;51.488;6.668;2023-09-07T11:42:55;31.80;99.90
22071;DHT22;11200;51.488;6.668;2023-09-07T11:45:21;31.90;99.90
22071;DHT22;11200;51.488;6.668;2023-09-07T11:47:47;31.90;99.90
22071;DHT22;11200;51.488;6.668;2023-09-07T11:50:12;31.90;99.90
22071;DHT22;11200;51.488;6.668;2023-09-07T11:52:38;31.90;99.90
22071;DHT22;11200;51.488;6.668;2023-09-07T11:55:04;32.00;99.90
22071;DHT22;11200;51.488;6.668;2023-09-07T11:57:30;32.10;99.90
22071;DHT22;11200;51.488;6.668;2023-09-07T11:59:56;32.20;99.90
22071;DHT22;11200;51.488;6.668;2023-09-07T12:02:22;32.20;99.90
22071;DHT22;11200;51.488;6.668;2023-09-07T12:04:47;32.30;99.90
22071;DHT22;11200;51.488;6.668;2023-09-07T12:07:14;32.30;99.90
22071;DHT22;11200;51.488;6.668;2023-09-07T12:09:40;32.30;99.90
22071;DHT22;11200;51.488;6.668;2023-09-07T12:12:06;32.30;99.90
22071;DHT22;11200;51.488;6.668;2023-09-07T12:14:31;32.50;99.90
22071;DHT22;11200;51.488;6.668;2023-09-07T12:16:57;32.50;99.90
22071;DHT22;11200;51.488;6.668;2023-09-07T12:19:23;32.60;99.90
22071;DHT22;11200;51.488;6.668;2023-09-07T12:21:48;32.60;99.90
22071;DHT22;11200;51.488;6.668;2023-09-07T12:24:15;32.70;99.90
22071;DHT22;11200;51.488;6.668;2023-09-07T12:26:41;32.80;99.90
22071;DHT22;11200;51.488;6.668;2023-09-07T12:29:06;32.70;99.90
22071;DHT22;11200;51.488;6.668;2023-09-07T12:31:35;32.80;99.90
22071;DHT22;11200;51.488;6.668;2023-09-07T12:34:01;32.90;99.90
22071;DHT22;11200;51.488;6.668;2023-09-07T12:36:26;32.90;99.90
22071;DHT22;11200;51.488;6.668;2023-09-07T12:38:55;32.90;99.90
22071;DHT22;11200;51.488;6.668;2023-09-07T12:41:29;32.90;99.90
22071;DHT22;11200;51.488;6.668;2023-09-07T12:43:56;32.90;99.90
22071;DHT22;11200;51.488;6.668;2023-09-07T12:46:21;33.00;99.90
22071;DHT22;11200;51.488;6.668;2023-09-07T12:48:47;32.90;99.90
22071;DHT22;11200;51.488;6.668;2023-09-07T12:51:12;33.00;99.90
22071;DHT22;11200;51.488;6.668;2023-09-07T12:53:38;33.00;99.90
22071;DHT22;11200;51.488;6.668;2023-09-07T12:56:05;33.00;99.90
22071;DHT22;11200;51.488;6.668;2023-09-07T12:58:30;33.10;99.90
22071;DHT22;11200;51.488;6.668;2023-09-07T13:00:56;33.10;99.90
22071;DHT22;11200;51.488;6.668;2023-09-07T13:03:22;33.10;99.90
22071;DHT22;11200;51.488;6.668;2023-09-07T13:05:48;33.10;99.90
22071;DHT22;11200;51.488;6.668;2023-09-07T13:08:15;33.00;99.90
22071;DHT22;11200;51.488;6.668;2023-09-07T13:10:42;33.00;99.90
22071;DHT22;11200;51.488;6.668;2023-09-07T13:13:09;33.00;99.90
22071;DHT22;11200;51.488;6.668;2023-09-07T13:15:36;33.00;99.90
22071;DHT22;11200;51.488;6.668;2023-09-07T13:18:03;33.00;99.90
22071;DHT22;11200;51.488;6.668;2023-09-07T13:20:29;33.10;99.90
22071;DHT22;11200;51.488;6.668;2023-09-07T13:22:55;33.10;99.90
22071;DHT22;11200;51.488;6.668;2023-09-07T13:25:22;33.10;99.90
22071;DHT22;11200;51.488;6.668;2023-09-07T13:27:47;33.10;99.90
22071;DHT22;11200;51.488;6.668;2023-09-07T13:30:13;33.00;99.90
22071;DHT22;11200;51.488;6.668;2023-09-07T13:32:38;33.10;99.90
22071;DHT22;11200;51.488;6.668;2023-09-07T13:35:05;33.00;99.90
22071;DHT22;11200;51.488;6.668;2023-09-07T13:37:31;33.00;99.90
22071;DHT22;11200;51.488;6.668;2023-09-07T13:39:57;33.10;99.90
22071;DHT22;11200;51.488;6.668;2023-09-07T13:42:23;33.00;99.90
22071;DHT22;11200;51.488;6.668;2023-09-07T13:44:49;32.90;99.90
22071;DHT22;11200;51.488;6.668;2023-09-07T13:47:15;32.90;99.90
22071;DHT22;11200;51.488;6.668;2023-09-07T13:49:41;32.90;99.90
22071;DHT22;11200;51.488;6.668;2023-09-07T13:52:06;32.90;99.90
22071;DHT22;11200;51.488;6.668;2023-09-07T13:54:32;32.90;99.90
22071;DHT22;11200;51.488;6.668;2023-09-07T13:56:57;32.80;99.90
22071;DHT22;11200;51.488;6.668;2023-09-07T13:59:23;32.80;99.90
22071;DHT22;11200;51.488;6.668;2023-09-07T14:01:51;32.70;99.90
22071;DHT22;11200;51.488;6.668;2023-09-07T14:04:17;32.70;99.90
22071;DHT22;11200;51.488;6.668;2023-09-07T14:06:44;32.60;99.90
22071;DHT22;11200;51.488;6.668;2023-09-07T14:09:12;32.60;99.90
22071;DHT22;11200;51.488;6.668;2023-09-07T14:11:38;32.60;99.90
22071;DHT22;11200;51.488;6.668;2023-09-07T14:14:03;32.60;99.90
22071;DHT22;11200;51.488;6.668;2023-09-07T14:16:29;32.40;99.90
22071;DHT22;11200;51.488;6.668;2023-09-07T14:18:55;32.40;99.90
22071;DHT22;11200;51.488;6.668;2023-09-07T14:21:20;32.40;99.90
22071;DHT22;11200;51.488;6.668;2023-09-07T14:23:46;32.40;99.90
22071;DHT22;11200;51.488;6.668;2023-09-07T14:26:12;32.30;99.90
22071;DHT22;11200;51.488;6.668;2023-09-07T14:28:37;32.20;99.90
22071;DHT22;11200;51.488;6.668;2023-09-07T14:31:05;32.20;99.90
22071;DHT22;11200;51.488;6.668;2023-09-07T14:33:33;32.10;99.90
22071;DHT22;11200;51.488;6.668;2023-09-07T14:36:01;32.10;99.90
22071;DHT22;11200;51.488;6.668;2023-09-07T14:38:26;32.00;99.90
22071;DHT22;11200;51.488;6.668;2023-09-07T14:40:53;32.00;99.90
22071;DHT22;11200;51.488;6.668;2023-09-07T14:43:24;31.80;99.90
22071;DHT22;11200;51.488;6.668;2023-09-07T14:45:50;31.80;99.90
22071;DHT22;11200;51.488;6.668;2023-09-07T14:48:16;31.60;99.90
22071;DHT22;11200;51.488;6.668;2023-09-07T14:50:41;31.70;99.90
22071;DHT22;11200;51.488;6.668;2023-09-07T14:53:07;31.60;99.90
22071;DHT22;11200;51.488;6.668;2023-09-07T14:55:32;31.50;99.90
22071;DHT22;11200;51.488;6.668;2023-09-07T14:57:58;31.50;99.90
22071;DHT22;11200;51.488;6.668;2023-09-07T15:00:24;31.40;99.90
22071;DHT22;11200;51.488;6.668;2023-09-07T15:02:53;31.40;99.90
22071;DHT22;11200;51.488;6.668;2023-09-07T15:05:19;31.30;99.90
22071;DHT22;11200;51.488;6.668;2023-09-07T15:07:44;31.20;99.90
22071;DHT22;11200;51.488;6.668;2023-09-07T15:10:10;31.20;99.90
22071;DHT22;11200;51.488;6.668;2023-09-07T15:12:35;31.10;99.90
22071;DHT22;11200;51.488;6.668;2023-09-07T15:15:01;31.10;99.90
22071;DHT22;11200;51.488;6.668;2023-09-07T15:17:27;31.10;99.90
22071;DHT22;11200;51.488;6.668;2023-09-07T15:19:53;31.00;99.90
22071;DHT22;11200;51.488;6.668;2023-09-07T15:22:18;30.90;99.90
22071;DHT22;11200;51.488;6.668;2023-09-07T15:24:46;30.90;99.90
22071;DHT22;11200;51.488;6.668;2023-09-07T15:27:12;30.80;99.90